Time;durP1;ratioP1;P1;durP2;ratioP2;P2;SDS_P1;SDS_P2;PMS_P1;PMS_P2;Temp;Humidity;BMP_temperature;BMP_pressure;BME280_temperature;BME280_humidity;BME280_pressure;Samples;Min_cycle;Max_cycle;Signal;HPM_P1;HPM_P2
2024/02/23 00:00:24;;;;;;;9.55;6.93;;;;;;;11.36;53.38;98761.47;5053264;28;20029;-73
2024/02/23 00:02:50;;;;;;;9.90;6.78;;;;;;;11.35;53.17;98759.84;5036695;28;20430;-73
2024/02/23 00:05:15;;;;;;;9.50;6.97;;;;;;;11.34;53.36;98757.34;5053290;28;20033;-72
2024/02/23 00:07:41;;;;;;;9.30;6.97;;;;;;;11.26;53.48;98746.66;5053443;28;20460;-73
2024/02/23 00:10:07;;;;;;;10.57;7.13;;;;;;;11.25;53.30;98729.31;5036745;28;20040;-73
2024/02/23 00:12:33;;;;;;;9.32;6.45;;;;;;;11.28;53.56;98737.75;5053286;28;20345;-72
2024/02/23 00:14:58;;;;;;;9.07;7.00;;;;;;;11.25;53.53;98740.59;5054323;28;20033;-73
2024/02/23 00:17:24;;;;;;;10.48;6.97;;;;;;;11.24;53.64;98741.53;5054237;28;20055;-74
2024/02/23 00:19:49;;;;;;;11.73;6.90;;;;;;;11.21;53.36;98739.16;5036400;28;20048;-73
2024/02/23 00:22:15;;;;;;;10.30;6.57;;;;;;;11.19;53.49;98738.47;5054367;28;20458;-74
2024/02/23 00:24:40;;;;;;;10.07;7.32;;;;;;;11.16;53.68;98738.72;5052886;28;20032;-72
2024/02/23 00:27:06;;;;;;;10.20;6.95;;;;;;;11.15;53.53;98742.28;5036234;28;20095;-72
2024/02/23 00:29:32;;;;;;;9.88;7.47;;;;;;;11.14;53.85;98751.06;5036478;28;20463;-72
2024/02/23 00:31:57;;;;;;;9.90;7.25;;;;;;;11.12;53.82;98751.19;5019960;28;20119;-73
2024/02/23 00:34:23;;;;;;;8.90;6.90;;;;;;;11.11;53.96;98740.88;5054158;28;20401;-74
2024/02/23 00:36:48;;;;;;;8.30;7.00;;;;;;;11.06;53.94;98735.19;5053817;28;20036;-72
2024/02/23 00:39:14;;;;;;;10.45;7.22;;;;;;;11.07;53.85;98737.66;5052758;28;20139;-72
2024/02/23 00:41:39;;;;;;;9.52;6.72;;;;;;;11.06;53.87;98740.41;5035937;28;20048;-73
2024/02/23 00:44:05;;;;;;;8.80;6.68;;;;;;;11.02;54.06;98740.63;5052517;28;20079;-72
2024/02/23 00:46:30;;;;;;;8.82;6.40;;;;;;;11.08;53.79;98743.72;5035560;28;20068;-72
2024/02/23 00:48:56;;;;;;;10.30;7.10;;;;;;;11.01;54.06;98730.31;5035905;28;20115;-72
2024/02/23 00:51:21;;;;;;;10.05;7.25;;;;;;;11.03;53.82;98729.22;5035428;28;20052;-72
2024/02/23 00:53:47;;;;;;;10.20;7.30;;;;;;;11.01;54.09;98722.47;5035699;28;20127;-73
2024/02/23 00:56:15;;;;;;;9.40;6.75;;;;;;;11.03;54.07;98723.16;5019411;28;20405;-73
2024/02/23 00:58:40;;;;;;;8.85;6.30;;;;;;;11.01;54.01;98722.47;5053614;28;20055;-73
2024/02/23 01:01:06;;;;;;;9.25;7.13;;;;;;;11.01;53.89;98723.28;5052348;28;20045;-74
2024/02/23 01:03:31;;;;;;;8.77;6.70;;;;;;;10.95;54.04;98715.94;5053396;28;20579;-74
2024/02/23 01:05:57;;;;;;;9.35;7.10;;;;;;;10.97;53.98;98706.19;5052361;28;20029;-73
2024/02/23 01:08:22;;;;;;;10.82;7.13;;;;;;;10.98;54.18;98715.69;5052446;28;20094;-73
2024/02/23 01:10:48;;;;;;;8.60;6.68;;;;;;;10.98;54.08;98718.31;5053531;28;20103;-73
2024/02/23 01:13:13;;;;;;;8.77;6.97;;;;;;;10.93;53.95;98709.19;5053323;28;20033;-73
2024/02/23 01:15:39;;;;;;;8.60;6.95;;;;;;;10.98;54.27;98722.72;5035361;28;20437;-72
2024/02/23 01:18:07;;;;;;;8.88;7.15;;;;;;;10.96;54.03;98720.22;5035533;28;20035;-73
2024/02/23 01:20:33;;;;;;;10.35;7.05;;;;;;;10.97;54.12;98718.44;5052022;28;20029;-72
2024/02/23 01:22:58;;;;;;;9.45;6.63;;;;;;;10.96;54.45;98717.59;5052040;28;20028;-73
2024/02/23 01:25:24;;;;;;;9.88;6.90;;;;;;;10.90;54.21;98702.41;5052131;28;20037;-73
2024/02/23 01:27:49;;;;;;;9.85;7.10;;;;;;;10.94;54.07;98706.47;5035164;28;20021;-73
2024/02/23 01:30:15;;;;;;;8.65;6.95;;;;;;;10.88;54.20;98691.25;5051710;28;20041;-73
2024/02/23 01:32:41;;;;;;;8.18;6.88;;;;;;;10.91;54.32;98704.09;5051685;28;20025;-73
2024/02/23 01:35:07;;;;;;;10.07;6.90;;;;;;;10.86;54.33;98699.22;5051762;28;20033;-72
2024/02/23 01:37:33;;;;;;;9.60;7.10;;;;;;;10.88;54.03;98699.09;5051705;28;20029;-74
2024/02/23 01:39:59;;;;;;;11.23;7.38;;;;;;;10.83;54.52;98698.59;5051622;28;20028;-73
2024/02/23 01:42:25;;;;;;;8.50;6.45;;;;;;;10.84;54.48;98687.22;5034797;28;20033;-72
2024/02/23 01:44:51;;;;;;;8.80;6.97;;;;;;;10.84;54.29;98693.25;5018513;28;20082;-73
2024/02/23 01:47:16;;;;;;;10.48;7.55;;;;;;;10.84;54.48;98687.22;5034915;28;20028;-73
2024/02/23 01:49:42;;;;;;;9.48;6.88;;;;;;;10.84;54.65;98679.38;5034746;28;20106;-73
2024/02/23 01:52:08;;;;;;;10.43;7.28;;;;;;;10.83;54.42;98675.09;5052701;28;20037;-73
2024/02/23 01:54:34;;;;;;;8.98;7.20;;;;;;;10.83;54.43;98672.50;5052533;28;20116;-73
2024/02/23 01:56:59;;;;;;;10.30;6.93;;;;;;;10.79;54.64;98674.53;5034613;28;20033;-74
2024/02/23 01:59:25;;;;;;;8.38;6.72;;;;;;;10.76;54.54;98668.72;5050912;28;20037;-74
2024/02/23 02:01:50;;;;;;;9.27;6.93;;;;;;;10.79;54.72;98674.53;5034665;28;20407;-73
2024/02/23 02:04:16;;;;;;;10.75;6.95;;;;;;;10.77;54.71;98672.97;5050421;28;20476;-72
2024/02/23 02:06:41;;;;;;;8.68;6.75;;;;;;;10.76;54.72;98682.59;5034520;28;20465;-73
2024/02/23 02:09:07;;;;;;;9.57;6.95;;;;;;;10.76;54.73;98679.97;5034419;28;20045;-74
2024/02/23 02:11:32;;;;;;;9.20;7.13;;;;;;;10.74;54.68;98668.84;5034215;28;20451;-74
2024/02/23 02:13:58;;;;;;;10.30;7.22;;;;;;;10.76;54.68;98676.56;5050859;28;20044;-73
2024/02/23 02:16:23;;;;;;;9.32;6.95;;;;;;;10.70;54.86;98672.63;5017581;28;20045;-74
2024/02/23 02:18:49;;;;;;;7.75;6.53;;;;;;;10.73;54.85;98674.19;5017788;28;20420;-74
2024/02/23 02:21:14;;;;;;;8.60;6.78;;;;;;;10.75;54.73;98680.09;5050973;28;20025;-73
2024/02/23 02:23:40;;;;;;;9.25;6.93;;;;;;;10.64;54.79;98666.13;5034310;28;20037;-72
2024/02/23 02:26:05;;;;;;;10.93;6.88;;;;;;;10.71;54.56;98684.75;5034226;28;20204;-73
2024/02/23 02:28:31;;;;;;;9.15;6.78;;;;;;;10.68;54.76;98677.97;5033948;28;20075;-73
2024/02/23 02:30:56;;;;;;;9.05;6.85;;;;;;;10.68;54.73;98683.19;5052069;28;20028;-72
2024/02/23 02:33:22;;;;;;;9.57;7.30;;;;;;;10.64;54.88;98673.09;5051030;28;20361;-74
2024/02/23 02:35:49;;;;;;;11.27;7.13;;;;;;;10.67;54.56;98684.16;5034071;28;20024;-74
2024/02/23 02:38:15;;;;;;;8.77;7.00;;;;;;;10.62;54.54;98670.59;5017764;28;20477;-73
2024/02/23 02:40:40;;;;;;;11.15;7.05;;;;;;;10.67;54.75;98678.06;5033907;28;20036;-72
2024/02/23 02:43:06;;;;;;;8.63;7.13;;;;;;;10.65;54.74;98675.59;5050069;28;20045;-75
2024/02/23 02:45:32;;;;;;;9.93;7.18;;;;;;;10.62;54.67;98675.00;5017352;28;20049;-74
2024/02/23 02:47:57;;;;;;;10.05;6.53;;;;;;;10.58;54.96;98671.81;5051611;28;20029;-74
2024/02/23 02:50:23;;;;;;;9.98;7.63;;;;;;;10.64;54.80;98684.38;5033971;28;20033;-72
2024/02/23 02:52:48;;;;;;;8.98;7.00;;;;;;;10.57;54.74;98671.94;5050204;28;20052;-74
2024/02/23 02:55:14;;;;;;;8.85;6.65;;;;;;;10.61;54.73;98676.78;5034282;28;20033;-73
2024/02/23 02:57:39;;;;;;;9.40;6.70;;;;;;;10.60;54.81;98677.72;5051436;28;20082;-72
2024/02/23 03:00:05;;;;;;;9.30;7.18;;;;;;;10.57;54.66;98672.75;5051503;28;20111;-72
2024/02/23 03:02:31;;;;;;;9.02;7.28;;;;;;;10.55;54.65;98672.03;5051481;28;20043;-73
2024/02/23 03:04:57;;;;;;;9.23;7.00;;;;;;;10.57;54.70;98677.16;5050496;28;20033;-73
2024/02/23 03:07:22;;;;;;;9.57;7.15;;;;;;;10.56;54.82;98678.09;5050056;28;20032;-73
2024/02/23 03:09:49;;;;;;;8.75;6.90;;;;;;;10.50;54.75;98666.34;5050168;28;20052;-74
2024/02/23 03:12:15;;;;;;;9.75;7.40;;;;;;;10.49;54.90;98669.91;5049920;28;20396;-72
2024/02/23 03:14:40;;;;;;;10.25;7.15;;;;;;;10.50;54.88;98671.56;5035513;28;20029;-74
2024/02/23 03:17:11;;;;;;;9.07;6.82;;;;;;;10.49;54.80;98675.13;5037522;28;20044;-74
2024/02/23 03:19:37;;;;;;;9.85;7.28;;;;;;;10.47;54.82;98672.63;5054183;28;20480;-72
2024/02/23 03:22:03;;;;;;;9.95;7.35;;;;;;;10.44;54.94;98672.88;5037569;28;20051;-74
2024/02/23 03:24:28;;;;;;;8.95;6.90;;;;;;;10.42;54.98;98669.56;5054088;28;20025;-74
2024/02/23 03:26:55;;;;;;;10.38;7.40;;;;;;;10.37;54.95;98671.66;5054072;28;20108;-73
2024/02/23 03:29:21;;;;;;;10.90;7.32;;;;;;;10.36;55.10;98682.22;5054175;28;20110;-73
2024/02/23 03:31:47;;;;;;;9.55;7.72;;;;;;;10.39;55.21;98692.41;5021259;28;20033;-74
2024/02/23 03:34:13;;;;;;;9.52;7.18;;;;;;;10.31;55.19;98677.34;5053744;28;20033;-73
2024/02/23 03:36:38;;;;;;;11.30;6.82;;;;;;;10.36;55.05;98688.28;5037440;28;20025;-73
2024/02/23 03:39:03;;;;;;;9.65;6.72;;;;;;;10.24;55.21;98676.13;5055100;28;20087;-74
2024/02/23 03:41:29;;;;;;;9.93;7.50;;;;;;;10.31;55.39;98686.00;5037480;28;20032;-72
2024/02/23 03:43:54;;;;;;;9.23;7.00;;;;;;;10.30;55.20;98683.50;5053634;28;20037;-73
2024/02/23 03:46:21;;;;;;;10.40;7.03;;;;;;;10.27;55.45;98687.16;5037056;28;20053;-73
2024/02/23 03:48:46;;;;;;;9.50;7.28;;;;;;;10.23;55.30;98675.31;5037219;28;20114;-74
2024/02/23 03:51:12;;;;;;;10.55;7.20;;;;;;;10.23;55.32;98675.31;5037194;28;20472;-73
2024/02/23 03:53:37;;;;;;;9.57;6.95;;;;;;;10.20;55.39;98666.88;5053770;28;20063;-73
2024/02/23 03:56:04;;;;;;;8.30;6.68;;;;;;;10.23;55.46;98672.69;5036905;28;20045;-73
2024/02/23 03:58:29;;;;;;;9.07;7.00;;;;;;;10.19;55.30;98666.03;5053451;28;20025;-74
2024/02/23 04:00:55;;;;;;;9.55;7.22;;;;;;;10.20;55.51;98665.09;5036984;28;20053;-72
2024/02/23 04:03:21;;;;;;;10.40;7.35;;;;;;;10.18;55.47;98666.97;5054688;28;20412;-73
2024/02/23 04:05:46;;;;;;;10.45;7.00;;;;;;;10.18;55.44;98669.59;5053190;28;20029;-73
2024/02/23 04:08:12;;;;;;;9.80;7.10;;;;;;;10.16;55.46;98674.09;5053419;28;20472;-73
2024/02/23 04:10:37;;;;;;;8.75;6.63;;;;;;;10.16;55.24;98673.28;5053269;28;20033;-74
2024/02/23 04:13:03;;;;;;;8.45;6.70;;;;;;;10.14;55.52;98668.19;5054181;28;20033;-74
2024/02/23 04:15:28;;;;;;;9.70;6.82;;;;;;;10.08;55.50;98655.59;5053885;28;20031;-73
2024/02/23 04:17:54;;;;;;;8.77;7.03;;;;;;;10.12;55.60;98665.69;5036351;28;20025;-73
2024/02/23 04:20:19;;;;;;;9.30;6.90;;;;;;;10.05;55.51;98645.41;5053074;28;20037;-73
2024/02/23 04:22:46;;;;;;;11.40;7.05;;;;;;;10.08;55.41;98658.22;5036387;28;20083;-74
2024/02/23 04:25:11;;;;;;;12.15;7.10;;;;;;;10.03;55.42;98655.13;5052841;28;20060;-72
2024/02/23 04:27:37;;;;;;;9.50;6.82;;;;;;;10.01;55.46;98651.78;5019064;28;20060;-74
2024/02/23 04:30:03;;;;;;;8.30;6.72;;;;;;;10.04;55.77;98665.44;5036288;28;20463;-73
2024/02/23 04:32:30;;;;;;;9.10;7.18;;;;;;;10.02;55.64;98659.47;5052749;28;20349;-73
2024/02/23 04:34:55;;;;;;;9.98;7.10;;;;;;;9.96;55.62;98657.34;5053956;28;20072;-73
2024/02/23 04:37:21;;;;;;;10.50;6.97;;;;;;;9.94;55.68;98660.06;5052494;28;20069;-73
2024/02/23 04:39:46;;;;;;;8.77;6.93;;;;;;;9.92;55.53;98658.53;5036276;28;20033;-73
2024/02/23 04:42:12;;;;;;;9.18;6.80;;;;;;;9.90;55.83;98661.25;5036000;28;20041;-73
2024/02/23 04:44:37;;;;;;;10.68;7.32;;;;;;;9.90;55.80;98661.25;5035536;28;20059;-73
2024/02/23 04:47:03;;;;;;;9.23;7.03;;;;;;;9.91;55.62;98660.28;5052630;28;20040;-73
2024/02/23 04:49:28;;;;;;;9.13;6.95;;;;;;;9.87;55.77;98655.44;5053638;28;20503;-73
2024/02/23 04:51:54;;;;;;;10.38;7.25;;;;;;;9.83;55.86;98649.59;5035692;28;20136;-73
2024/02/23 04:54:19;;;;;;;9.65;7.40;;;;;;;9.87;55.84;98665.88;5019094;28;20029;-74
2024/02/23 04:56:45;;;;;;;10.27;7.10;;;;;;;9.80;56.02;98649.81;5036088;28;20036;-73
2024/02/23 04:59:10;;;;;;;9.68;7.03;;;;;;;9.81;55.73;98650.69;5035927;28;20389;-74
2024/02/23 05:01:37;;;;;;;9.77;7.18;;;;;;;9.86;55.75;98658.97;5035633;28;20409;-73
2024/02/23 05:04:03;;;;;;;11.00;7.63;;;;;;;9.80;55.79;98644.63;5035641;28;20033;-73
2024/02/23 05:06:29;;;;;;;9.65;6.78;;;;;;;9.84;55.82;98653.88;5035629;28;20028;-73
2024/02/23 05:08:54;;;;;;;9.05;7.45;;;;;;;9.82;55.79;98657.53;5035286;28;20041;-74
2024/02/23 05:11:20;;;;;;;8.52;7.25;;;;;;;9.91;55.52;98655.06;5035383;28;20042;-74
2024/02/23 05:13:45;;;;;;;9.90;7.70;;;;;;;10.00;55.30;98661.38;5019080;28;20037;-73
2024/02/23 05:16:12;;;;;;;9.60;7.03;;;;;;;10.21;54.88;98677.19;5034944;28;20111;-73
2024/02/23 05:18:38;;;;;;;9.95;7.18;;;;;;;10.35;54.61;98675.34;5035500;28;20029;-73
2024/02/23 05:21:04;;;;;;;10.68;7.53;;;;;;;10.28;54.63;98672.34;5051282;28;20405;-73
2024/02/23 05:23:30;;;;;;;9.50;7.75;;;;;;;10.34;54.62;98676.28;5051346;28;20025;-75
2024/02/23 05:25:55;;;;;;;9.70;6.80;;;;;;;10.30;54.56;98663.44;5051347;28;20052;-72
2024/02/23 05:28:21;;;;;;;9.07;7.20;;;;;;;10.37;54.53;98684.72;5035407;28;20092;-73
2024/02/23 05:30:46;;;;;;;10.25;7.75;;;;;;;10.34;54.56;98669.28;5035067;28;20033;-73
2024/02/23 05:33:12;;;;;;;10.85;7.75;;;;;;;10.40;54.31;98681.03;5053239;28;20051;-73
2024/02/23 05:35:38;;;;;;;10.20;6.97;;;;;;;10.42;54.35;98676.53;5035015;28;20028;-75
2024/02/23 05:38:06;;;;;;;10.18;6.85;;;;;;;10.40;54.19;98670.59;5050430;28;20041;-74
2024/02/23 05:40:32;;;;;;;9.73;7.13;;;;;;;10.51;53.98;98678.44;5035520;28;20103;-73
2024/02/23 05:42:58;;;;;;;10.85;7.85;;;;;;;10.59;53.81;98672.63;5034915;28;20060;-73
2024/02/23 05:45:23;;;;;;;10.40;7.93;;;;;;;10.93;53.19;98678.66;5051477;28;20488;-74
2024/02/23 05:47:49;;;;;;;9.70;7.70;;;;;;;11.57;52.09;98677.06;5034924;28;20133;-73
2024/02/23 05:50:14;;;;;;;9.95;7.45;;;;;;;12.17;50.76;98689.66;5018029;28;20053;-73
2024/02/23 05:52:40;;;;;;;9.40;7.47;;;;;;;12.59;50.27;98685.19;5034491;28;20033;-73
2024/02/23 05:55:06;;;;;;;9.40;7.47;;;;;;;13.10;49.10;98690.47;5051038;28;20033;-74
2024/02/23 05:57:31;;;;;;;9.30;7.43;;;;;;;13.49;48.31;98675.66;5051176;28;20447;-74
2024/02/23 05:59:57;;;;;;;10.43;7.53;;;;;;;13.98;47.51;98698.41;5051085;28;20036;-74
2024/02/23 06:02:22;;;;;;;10.98;7.60;;;;;;;14.41;46.35;98684.00;5034369;28;20400;-73
2024/02/23 06:04:48;;;;;;;9.10;7.40;;;;;;;14.99;45.35;98701.34;5017723;28;20037;-73
2024/02/23 06:07:15;;;;;;;11.35;8.40;;;;;;;15.52;44.47;98691.88;5034136;28;20037;-73
2024/02/23 06:09:41;;;;;;;9.32;7.50;;;;;;;16.13;43.58;98700.84;5035006;28;20032;-73
2024/02/23 06:12:07;;;;;;;9.90;7.82;;;;;;;16.69;42.53;98697.88;5052123;28;20113;-74
2024/02/23 06:14:33;;;;;;;10.70;8.15;;;;;;;17.25;41.59;98687.72;5050864;28;20029;-73
2024/02/23 06:16:58;;;;;;;10.57;9.15;;;;;;;17.81;40.53;98696.72;5051075;28;20406;-74
2024/02/23 06:19:23;;;;;;;12.00;9.75;;;;;;;18.40;39.95;98701.00;5034667;28;20091;-74
2024/02/23 06:21:49;;;;;;;13.60;10.30;;;;;;;18.93;38.96;98696.91;5050773;28;20345;-73
2024/02/23 06:24:16;;;;;;;21.45;12.18;;;;;;;19.52;38.39;98698.25;5050763;28;20092;-74
2024/02/23 06:26:41;;;;;;;17.15;12.45;;;;;;;20.04;37.61;98700.19;5034426;28;20029;-75
2024/02/23 06:29:11;;;;;;;18.00;13.45;;;;;;;20.57;36.94;98705.50;5034293;28;20076;-74
2024/02/23 06:31:39;;;;;;;17.73;13.35;;;;;;;21.07;36.11;98704.97;5050867;28;20140;-75
2024/02/23 06:34:05;;;;;;;;;;;;;;;21.62;35.32;98705.41;5034665;28;20041;-72
2024/02/23 06:36:30;;;;;;;18.00;14.38;;;;;;;22.09;34.62;98701.34;5050889;28;19908;-74
2024/02/23 06:38:55;;;;;;;18.48;14.70;;;;;;;22.61;34.10;98707.22;5034325;28;20036;-73
2024/02/23 06:41:21;;;;;;;20.73;15.98;;;;;;;23.11;33.26;98705.25;5034015;28;20037;-72
2024/02/23 06:43:46;;;;;;;22.23;15.60;;;;;;;23.63;32.81;98716.25;5050204;28;20041;-74
2024/02/23 06:46:12;;;;;;;21.13;15.32;;;;;;;24.12;32.19;98702.81;5050288;28;20494;-74
2024/02/23 06:48:38;;;;;;;23.08;16.70;;;;;;;24.58;31.57;98707.31;5049779;28;20041;-74
2024/02/23 06:51:04;;;;;;;21.23;15.82;;;;;;;25.09;30.69;98705.69;5051368;28;20194;-75
2024/02/23 06:53:30;;;;;;;23.05;16.98;;;;;;;25.60;30.28;98704.84;5034052;28;20044;-74
2024/02/23 06:55:55;;;;;;;22.52;17.38;;;;;;;26.15;29.17;98698.91;5051896;28;20029;-75
2024/02/23 06:58:21;;;;;;;20.13;16.95;;;;;;;26.67;28.64;98706.66;5050204;28;20130;-73
2024/02/23 07:00:46;;;;;;;22.60;17.85;;;;;;;27.39;27.81;98700.69;5051434;28;20032;-73
2024/02/23 07:03:12;;;;;;;20.67;17.48;;;;;;;27.93;26.88;98698.03;5050084;28;20033;-74
2024/02/23 07:05:37;;;;;;;21.92;17.42;;;;;;;28.71;25.91;98702.50;5050498;28;20033;-74
2024/02/23 07:08:03;;;;;;;19.02;17.02;;;;;;;29.52;25.30;98697.94;5050102;28;20029;-75
2024/02/23 07:10:29;;;;;;;20.58;17.40;;;;;;;30.35;24.09;98693.88;5033372;28;20408;-74
2024/02/23 07:12:56;;;;;;;20.67;16.20;;;;;;;31.23;22.86;98691.28;5017131;28;20029;-73
2024/02/23 07:15:21;;;;;;;18.55;16.63;;;;;;;31.96;22.06;98699.00;5033670;28;20045;-74
2024/02/23 07:17:47;;;;;;;21.02;17.33;;;;;;;32.78;21.17;98686.06;5033835;28;20163;-74
2024/02/23 07:20:13;;;;;;;20.30;16.80;;;;;;;33.52;20.18;98694.91;5033319;28;20037;-73
2024/02/23 07:22:38;;;;;;;20.00;17.10;;;;;;;34.25;19.51;98687.63;5049791;28;20041;-75
2024/02/23 07:25:05;;;;;;;19.50;16.73;;;;;;;34.89;19.07;98686.09;5050058;28;20555;-73
2024/02/23 07:27:31;;;;;;;17.60;15.90;;;;;;;35.33;18.58;98689.97;5050636;28;20025;-73
2024/02/23 07:29:57;;;;;;;17.50;15.65;;;;;;;35.65;18.28;98686.75;5050042;28;20399;-74
2024/02/23 07:32:22;;;;;;;17.75;15.88;;;;;;;36.04;17.89;98685.06;5033674;28;20044;-73
2024/02/23 07:34:48;;;;;;;17.17;15.43;;;;;;;36.10;18.08;98694.00;5049549;28;20037;-74
2024/02/23 07:37:13;;;;;;;16.33;14.73;;;;;;;36.09;17.96;98692.38;5050076;28;20109;-74
2024/02/23 07:39:39;;;;;;;15.88;14.18;;;;;;;36.10;17.85;98694.78;5033132;28;20536;-74
2024/02/23 07:42:06;;;;;;;15.90;14.25;;;;;;;35.92;18.13;98684.66;5033185;28;20128;-74
2024/02/23 07:44:32;;;;;;;15.27;13.65;;;;;;;35.38;18.75;98689.13;5016789;28;20098;-75
2024/02/23 07:46:59;;;;;;;15.25;13.65;;;;;;;34.93;19.34;98680.94;5033061;28;20045;-73
2024/02/23 07:49:24;;;;;;;15.38;13.68;;;;;;;34.52;19.53;98687.31;5033310;28;20048;-73
2024/02/23 07:51:50;;;;;;;15.80;14.20;;;;;;;34.02;20.41;98692.50;5033377;28;20029;-73
2024/02/23 07:54:16;;;;;;;15.15;13.55;;;;;;;33.75;20.53;98681.16;5016838;28;20032;-74
2024/02/23 07:56:41;;;;;;;14.48;12.68;;;;;;;33.49;20.93;98689.22;5049749;28;20460;-74
2024/02/23 07:59:07;;;;;;;16.88;13.95;;;;;;;33.21;21.29;98685.13;5016448;28;20041;-75
2024/02/23 08:01:33;;;;;;;17.92;13.90;;;;;;;33.00;21.45;98682.31;5018116;28;20029;-74
2024/02/23 08:03:58;;;;;;;16.70;13.32;;;;;;;32.90;21.46;98682.31;5036505;28;20461;-74
2024/02/23 08:06:23;;;;;;;14.48;12.80;;;;;;;32.79;21.69;98692.25;5053337;28;20063;-74
2024/02/23 08:08:49;;;;;;;15.35;13.75;;;;;;;32.54;22.00;98684.81;5020271;28;20435;-74
2024/02/23 08:11:14;;;;;;;16.77;13.02;;;;;;;32.26;22.92;98690.34;5020599;28;20040;-75
2024/02/23 08:13:40;;;;;;;15.73;12.98;;;;;;;32.02;22.76;98687.16;5054577;28;20032;-76
2024/02/23 08:16:06;;;;;;;15.60;13.38;;;;;;;31.87;23.33;98690.56;5054844;28;20044;-75
2024/02/23 08:18:32;;;;;;;15.02;13.18;;;;;;;31.82;23.63;98695.94;5036499;28;20186;-74
2024/02/23 08:20:58;;;;;;;19.90;12.85;;;;;;;31.75;23.45;98692.63;5054465;28;20496;-75
2024/02/23 08:23:24;;;;;;;17.38;13.10;;;;;;;31.76;23.58;98680.75;5020007;28;20149;-73
2024/02/23 08:25:50;;;;;;;17.25;12.30;;;;;;;31.79;23.80;98682.13;5036702;28;20473;-74
2024/02/23 08:28:16;;;;;;;14.55;12.38;;;;;;;31.86;23.68;98682.72;5053274;28;20090;-74
2024/02/23 08:30:41;;;;;;;17.05;12.68;;;;;;;31.89;23.79;98677.59;5052815;28;20112;-73
2024/02/23 08:33:09;;;;;;;16.63;11.77;;;;;;;31.95;23.57;98672.28;5020133;28;20044;-74
2024/02/23 08:35:35;;;;;;;13.52;12.13;;;;;;;32.06;23.59;98673.97;5036586;28;20040;-76
2024/02/23 08:38:01;;;;;;;14.77;12.23;;;;;;;32.11;23.63;98671.31;5052750;28;20041;-74
2024/02/23 08:40:26;;;;;;;14.57;11.63;;;;;;;32.26;23.24;98676.00;5019646;28;20048;-74
2024/02/23 08:42:52;;;;;;;14.13;11.40;;;;;;;32.29;23.51;98675.47;5052825;28;20087;-74
2024/02/23 08:45:18;;;;;;;14.75;11.00;;;;;;;32.39;23.42;98683.66;5052626;28;20052;-74
2024/02/23 08:47:43;;;;;;;14.52;10.95;;;;;;;32.47;23.46;98682.34;5036219;28;20098;-72
2024/02/23 08:50:09;;;;;;;12.32;10.73;;;;;;;32.49;23.48;98682.91;5036051;28;20394;-74
2024/02/23 08:52:34;;;;;;;12.98;10.23;;;;;;;32.38;23.40;98673.13;5019139;28;20136;-74
2024/02/23 08:55:00;;;;;;;15.93;10.77;;;;;;;32.41;23.46;98675.28;5036068;28;20064;-74
2024/02/23 08:57:27;;;;;;;12.50;10.00;;;;;;;32.39;23.53;98667.44;5019541;28;20401;-74
2024/02/23 08:59:53;;;;;;;12.30;10.53;;;;;;;32.44;23.56;98678.28;5036136;28;20052;-75
2024/02/23 09:02:19;;;;;;;14.65;9.75;;;;;;;32.40;23.48;98666.38;5052247;28;20275;-74
2024/02/23 09:04:45;;;;;;;16.25;10.15;;;;;;;32.47;23.13;98674.25;5052508;28;20029;-74
2024/02/23 09:07:11;;;;;;;12.68;9.40;;;;;;;32.45;23.23;98671.81;5035683;28;20120;-73
2024/02/23 09:09:37;;;;;;;14.73;9.68;;;;;;;32.50;23.03;98678.28;5035761;28;20041;-74
2024/02/23 09:12:02;;;;;;;13.18;9.50;;;;;;;32.56;23.06;98675.38;5051955;28;20040;-76
2024/02/23 09:14:28;;;;;;;12.85;9.05;;;;;;;32.53;22.72;98672.38;5035692;28;20474;-75
2024/02/23 09:16:53;;;;;;;10.13;8.60;;;;;;;32.58;22.90;98675.13;5035423;28;20037;-76
2024/02/23 09:19:20;;;;;;;13.18;8.32;;;;;;;32.73;22.85;98669.78;5035669;28;20083;-74
2024/02/23 09:21:45;;;;;;;12.07;8.97;;;;;;;32.88;22.88;98660.94;5052594;28;20410;-74
2024/02/23 09:24:11;;;;;;;11.32;8.82;;;;;;;32.97;22.63;98663.94;5018697;28;20032;-72
2024/02/23 09:26:36;;;;;;;10.13;8.55;;;;;;;33.02;22.60;98669.38;5035930;28;20032;-74
2024/02/23 09:29:02;;;;;;;11.57;8.30;;;;;;;32.94;21.96;98668.00;5051449;28;20115;-73
2024/02/23 09:31:31;;;;;;;9.70;7.80;;;;;;;32.96;22.32;98665.81;5035209;28;20036;-73
2024/02/23 09:33:57;;;;;;;10.70;8.32;;;;;;;33.17;22.10;98671.28;5035964;28;20057;-73
2024/02/23 09:36:22;;;;;;;10.88;8.20;;;;;;;33.07;22.32;98673.97;5051774;28;20558;-74
2024/02/23 09:38:48;;;;;;;9.80;7.47;;;;;;;33.16;22.33;98672.34;5035123;28;20028;-74
2024/02/23 09:41:22;;;;;;;11.25;7.88;;;;;;;33.20;22.47;98673.50;5035159;28;20088;-74
2024/02/23 09:43:48;;;;;;;10.70;8.07;;;;;;;33.13;22.79;98673.72;5051339;28;20029;-73
2024/02/23 09:46:15;;;;;;;11.00;7.30;;;;;;;33.10;22.62;98670.72;5035655;28;20508;-75
2024/02/23 09:48:44;;;;;;;9.82;7.15;;;;;;;32.90;22.37;98674.19;5034743;28;20412;-73
2024/02/23 09:51:11;;;;;;;9.23;7.38;;;;;;;32.88;22.76;98671.75;5018714;28;20044;-74
2024/02/23 09:53:37;;;;;;;8.88;7.65;;;;;;;32.71;23.04;98654.94;5034623;28;20431;-74
2024/02/23 09:56:03;;;;;;;8.40;6.95;;;;;;;32.72;22.84;98656.53;5018032;28;20482;-72
2024/02/23 09:58:29;;;;;;;9.52;7.40;;;;;;;32.66;23.23;98660.28;5018295;28;20037;-74
2024/02/23 10:00:56;;;;;;;8.40;7.15;;;;;;;32.57;23.53;98657.28;5034630;28;20032;-74
2024/02/23 10:03:25;;;;;;;9.50;7.32;;;;;;;32.59;23.65;98655.09;5018116;28;20028;-76
2024/02/23 10:05:51;;;;;;;10.20;7.03;;;;;;;32.46;23.33;98653.69;5052329;28;20504;-75
2024/02/23 10:08:16;;;;;;;8.48;6.88;;;;;;;32.38;23.35;98651.50;5034376;28;20025;-73
2024/02/23 10:10:42;;;;;;;8.02;6.38;;;;;;;32.31;23.48;98651.75;5017974;28;20098;-73
2024/02/23 10:13:08;;;;;;;7.80;6.55;;;;;;;32.30;23.53;98647.41;5034387;28;20021;-74
2024/02/23 10:15:33;;;;;;;8.75;6.22;;;;;;;32.20;23.71;98634.66;5052184;28;20469;-73
2024/02/23 10:17:59;;;;;;;7.30;6.43;;;;;;;32.13;24.06;98631.38;5017988;28;20032;-73
2024/02/23 10:20:24;;;;;;;7.78;6.18;;;;;;;32.15;23.78;98637.34;5034472;28;20029;-73
2024/02/23 10:22:50;;;;;;;7.22;6.07;;;;;;;32.05;23.79;98629.13;5050616;28;20618;-74
2024/02/23 10:25:15;;;;;;;8.18;6.13;;;;;;;31.99;23.52;98635.56;5050662;28;20119;-74
2024/02/23 10:27:42;;;;;;;8.55;6.10;;;;;;;31.87;23.77;98630.38;5050520;28;20040;-75
2024/02/23 10:30:11;;;;;;;9.15;6.20;;;;;;;31.67;23.48;98620.25;5034420;28;20037;-73
2024/02/23 10:32:36;;;;;;;7.53;6.00;;;;;;;31.55;23.48;98623.13;5034244;28;20504;-73
2024/02/23 10:35:04;;;;;;;8.10;6.35;;;;;;;31.43;23.51;98622.44;5017251;28;20029;-75
2024/02/23 10:37:29;;;;;;;7.35;6.13;;;;;;;31.29;23.91;98613.97;5034177;28;20025;-75
2024/02/23 10:39:58;;;;;;;8.52;5.93;;;;;;;31.14;24.09;98601.97;5033775;28;20135;-74
2024/02/23 10:42:24;;;;;;;8.45;5.85;;;;;;;30.98;24.32;98600.16;5034489;28;20035;-74
2024/02/23 10:44:50;;;;;;;7.55;5.32;;;;;;;30.81;24.51;98598.34;5033388;28;20084;-73
2024/02/23 10:47:16;;;;;;;9.15;6.03;;;;;;;30.70;24.47;98602.00;5034060;28;20032;-73
2024/02/23 10:49:41;;;;;;;7.85;5.75;;;;;;;30.61;24.73;98601.63;5033790;28;20090;-74
2024/02/23 10:52:08;;;;;;;7.65;5.93;;;;;;;30.41;24.83;98588.75;5017454;28;20029;-75
2024/02/23 10:54:33;;;;;;;7.82;5.70;;;;;;;30.26;25.24;98585.81;5033817;28;20518;-74
2024/02/23 10:56:59;;;;;;;8.18;5.45;;;;;;;30.10;25.22;98584.81;5034230;28;20056;-73
2024/02/23 10:59:24;;;;;;;6.72;5.25;;;;;;;29.97;25.15;98579.75;5050469;28;20033;-73
2024/02/23 11:01:51;;;;;;;8.80;6.05;;;;;;;29.82;25.30;98572.28;5050391;28;20056;-75
2024/02/23 11:04:17;;;;;;;6.43;5.73;;;;;;;29.71;25.91;98563.22;5017315;28;20414;-76
2024/02/23 11:06:42;;;;;;;8.00;5.72;;;;;;;29.64;25.90;98571.47;5017057;28;20033;-74
2024/02/23 11:09:08;;;;;;;6.13;5.53;;;;;;;29.46;25.94;98556.41;5033591;28;20099;-74
2024/02/23 11:11:34;;;;;;;7.70;6.10;;;;;;;29.34;25.68;98559.16;5033486;28;20029;-75
2024/02/23 11:14:03;;;;;;;8.45;5.68;;;;;;;29.16;26.32;98557.50;5033739;28;20051;-74
2024/02/23 11:16:28;;;;;;;6.78;5.68;;;;;;;28.97;26.27;98554.22;5033696;28;20052;-73
2024/02/23 11:19:11;;;;;;;9.77;5.82;;;;;;;28.75;26.13;98555.94;5016814;28;20033;-74
2024/02/23 11:21:37;;;;;;;7.82;6.13;;;;;;;28.60;26.22;98557.28;5018126;28;20032;-74